Seventeam — FAE4848 — position and weather

sailwx.info

Track history (hours):
 
Tides and Currents Weather Stations Pressure Air Temp Water Temp Dewpoint Dewpoint Depression Visibility Wind Speed Wind Dir Waves Ship Positions

Seventeam

Last reported at 2018-Mar-29 18:33 UTC. Time now 2018-Jun-22 23:03 UTC.
Position N 47°32' W 002°55'.
Warning: this ship's position is months out of date.

Length 10 m.

Type: Pleasure craft. MMSI: 227480760.

Date/timePositionNaut miles runAvg speedWind from/ knotsBaromVisibWave heightAir tempDewpointWater temp
2018-Mar-29 18:33N 47°32' W 002°55'0 4.6
2018-Mar-29 18:27N 47°32' W 002°55'2 5.2
2018-Mar-29 17:59N 47°30' W 002°57'4 5.9
2018-Mar-29 17:17N 47°27' W 003°02'1 4.4
2018-Mar-29 16:58N 47°26' W 003°03'2 4.3
2018-Mar-29 16:29N 47°26' W 003°06'2 4.9
2018-Mar-29 15:59N 47°28' W 003°09'2 4.9
2018-Mar-29 15:30N 47°30' W 003°11'2 5.0
2018-Mar-29 15:00N 47°32' W 003°12'3 5.3
2018-Mar-29 14:30N 47°35' W 003°14'3 5.5
2018-Mar-29 14:00N 47°37' W 003°17'3 5.7
2018-Mar-29 13:30N 47°39' W 003°20'3 5.3
2018-Mar-29 12:58N 47°41' W 003°22'2 5.2
2018-Mar-29 12:30N 47°44' W 003°22'  
Track history (hours):
 
Tides and Currents Weather Stations Pressure Air Temp Water Temp Dewpoint Dewpoint Depression Visibility Wind Speed Wind Dir Waves Ship Positions

Seventeam

Last reported at 2018-Mar-29 18:33 UTC. Time now 2018-Jun-22 23:03 UTC.
Position N 47°32' W 002°55'.
Warning: this ship's position is months out of date.

Length 10 m.

Type: Pleasure craft. MMSI: 227480760.

Date/timePositionNaut miles runAvg speedWind from/ knotsBaromVisibWave heightAir tempDewpointWater temp
2018-Mar-29 18:33N 47°32' W 002°55'0 4.6
2018-Mar-29 18:27N 47°32' W 002°55'2 5.2
2018-Mar-29 17:59N 47°30' W 002°57'4 5.9
2018-Mar-29 17:17N 47°27' W 003°02'1 4.4
2018-Mar-29 16:58N 47°26' W 003°03'2 4.3
2018-Mar-29 16:29N 47°26' W 003°06'2 4.9
2018-Mar-29 15:59N 47°28' W 003°09'2 4.9
2018-Mar-29 15:30N 47°30' W 003°11'2 5.0
2018-Mar-29 15:00N 47°32' W 003°12'3 5.3
2018-Mar-29 14:30N 47°35' W 003°14'3 5.5
2018-Mar-29 14:00N 47°37' W 003°17'3 5.7
2018-Mar-29 13:30N 47°39' W 003°20'3 5.3
2018-Mar-29 12:58N 47°41' W 003°22'2 5.2
2018-Mar-29 12:30N 47°44' W 003°22'  

Dump ship's entire track history